Time;durP1;ratioP1;P1;durP2;ratioP2;P2;SDS_P1;SDS_P2;PMS_P1;PMS_P2;Temp;Humidity;BMP_temperature;BMP_pressure;BME280_temperature;BME280_humidity;BME280_pressure;Samples;Min_cycle;Max_cycle;Signal;HPM_P1;HPM_P2
2024/04/08 00:02:20;;;;;;;;;;;22.00;39.00;;;;;;5095990;28;1096;-69
2024/04/08 00:04:46;;;;;;;;;;;22.00;39.00;;;;;;5095960;28;1052;-69
2024/04/08 00:07:12;;;;;;;;;;;22.00;39.00;;;;;;5095800;28;1143;-69
2024/04/08 00:09:38;;;;;;;;;;;22.00;39.00;;;;;;5095109;28;1930;-69
2024/04/08 00:12:04;;;;;;;;;;;22.00;39.00;;;;;;5096056;28;1061;-68
2024/04/08 00:14:29;;;;;;;;;;;22.00;39.00;;;;;;5096501;28;1918;-68
2024/04/08 00:16:56;;;;;;;;;;;22.00;39.00;;;;;;5094460;28;1761;-68
2024/04/08 00:19:21;;;;;;;;;;;22.00;39.00;;;;;;5094744;28;1876;-69
2024/04/08 00:21:48;;;;;;;;;;;22.00;39.10;;;;;;5095506;28;1107;-69
2024/04/08 00:24:14;;;;;;;;;;;22.00;39.00;;;;;;5095175;28;1907;-69
2024/04/08 00:26:40;;;;;;;;;;;22.00;39.10;;;;;;5095496;28;1091;-69
2024/04/08 00:29:17;;;;;;;;;;;22.00;39.10;;;;;;5095794;28;1079;-69
2024/04/08 00:31:44;;;;;;;;;;;22.00;39.10;;;;;;5094654;28;1412;-69
2024/04/08 00:34:09;;;;;;;;;;;22.00;39.10;;;;;;5094757;28;1974;-68
2024/04/08 00:36:36;;;;;;;;;;;22.00;39.10;;;;;;5095385;28;1242;-69
2024/04/08 00:39:01;;;;;;;;;;;22.00;39.10;;;;;;5094643;28;1419;-69
2024/04/08 00:41:27;;;;;;;;;;;22.00;39.10;;;;;;5094267;28;1860;-69
2024/04/08 00:43:53;;;;;;;;;;;22.00;39.10;;;;;;5095561;28;1265;-69
2024/04/08 00:46:19;;;;;;;;;;;22.00;39.10;;;;;;5095291;28;1100;-69
2024/04/08 00:48:46;;;;;;;;;;;22.00;39.10;;;;;;5095766;28;1024;-69
2024/04/08 00:51:13;;;;;;;;;;;22.00;39.10;;;;;;5094509;28;1479;-69
2024/04/08 00:53:38;;;;;;;;;;;22.00;39.10;;;;;;5095283;28;1914;-69
2024/04/08 00:56:05;;;;;;;;;;;22.00;39.10;;;;;;5095275;28;1054;-69
2024/04/08 00:58:31;;;;;;;;;;;22.00;39.00;;;;;;5095320;28;1017;-69
2024/04/08 01:00:58;;;;;;;;;;;22.00;39.00;;;;;;5094147;28;1797;-69
2024/04/08 01:03:24;;;;;;;;;;;22.00;39.00;;;;;;5093388;28;1726;-69
2024/04/08 01:05:50;;;;;;;;;;;22.00;39.10;;;;;;5095405;28;1027;-70
2024/04/08 01:08:16;;;;;;;;;;;22.00;39.20;;;;;;5095393;28;1039;-70
2024/04/08 01:10:42;;;;;;;;;;;22.00;39.10;;;;;;5095243;28;1087;-69
2024/04/08 01:13:08;;;;;;;;;;;22.00;39.10;;;;;;5094093;28;1923;-69
2024/04/08 01:15:34;;;;;;;;;;;22.00;39.10;;;;;;5095387;28;1099;-69
2024/04/08 01:18:00;;;;;;;;;;;22.00;39.00;;;;;;5094453;28;1867;-70
2024/04/08 01:20:26;;;;;;;;;;;22.00;39.10;;;;;;5095076;28;1079;-69
2024/04/08 01:22:52;;;;;;;;;;;22.00;39.00;;;;;;5095127;28;975;-70
2024/04/08 01:25:17;;;;;;;;;;;22.00;39.10;;;;;;5096275;28;1397;-69
2024/04/08 01:27:44;;;;;;;;;;;22.00;39.10;;;;;;5099099;28;1055;-70
2024/04/08 01:30:09;;;;;;;;;;;21.90;39.00;;;;;;5098937;28;1294;-69
2024/04/08 01:32:36;;;;;;;;;;;22.00;39.20;;;;;;5099254;28;1998;-69
2024/04/08 01:35:01;;;;;;;;;;;21.90;39.10;;;;;;5098374;28;1860;-69
2024/04/08 01:37:27;;;;;;;;;;;21.90;39.10;;;;;;5099006;28;1007;-69
2024/04/08 01:39:53;;;;;;;;;;;21.90;39.00;;;;;;5098724;28;1163;-70
2024/04/08 01:42:19;;;;;;;;;;;21.90;39.10;;;;;;5098776;28;1197;-69
2024/04/08 01:44:45;;;;;;;;;;;21.90;39.00;;;;;;5097656;28;1805;-68
2024/04/08 01:47:12;;;;;;;;;;;21.90;39.10;;;;;;5098959;28;1565;-69
2024/04/08 01:49:37;;;;;;;;;;;21.90;39.10;;;;;;5097549;28;1927;-69
2024/04/08 01:52:03;;;;;;;;;;;21.90;39.10;;;;;;5086940;28;1289;-70
2024/04/08 01:54:29;;;;;;;;;;;21.90;39.10;;;;;;5078968;28;1898;-69
2024/04/08 01:56:55;;;;;;;;;;;21.90;39.10;;;;;;5089305;28;1809;-69
2024/04/08 01:59:21;;;;;;;;;;;21.90;39.10;;;;;;5098423;28;1058;-70
2024/04/08 02:01:47;;;;;;;;;;;21.90;39.20;;;;;;5098299;28;1393;-70
2024/04/08 02:04:12;;;;;;;;;;;21.90;39.20;;;;;;5098622;28;1091;-69
2024/04/08 02:06:39;;;;;;;;;;;21.90;39.20;;;;;;5097598;28;1737;-69
2024/04/08 02:09:04;;;;;;;;;;;21.90;39.20;;;;;;5098797;28;1013;-70
2024/04/08 02:11:31;;;;;;;;;;;21.90;39.20;;;;;;5098407;28;996;-69
2024/04/08 02:13:56;;;;;;;;;;;21.90;39.20;;;;;;5097393;28;1914;-69
2024/04/08 02:16:23;;;;;;;;;;;21.90;39.20;;;;;;5098443;28;1030;-69
2024/04/08 02:18:48;;;;;;;;;;;21.90;39.20;;;;;;5097399;28;1834;-69
2024/04/08 02:21:14;;;;;;;;;;;21.90;39.20;;;;;;5097424;28;1926;-69
2024/04/08 02:23:40;;;;;;;;;;;21.90;39.30;;;;;;5098419;28;1077;-69
2024/04/08 02:26:06;;;;;;;;;;;21.90;39.30;;;;;;5098120;28;996;-69
2024/04/08 02:28:32;;;;;;;;;;;21.90;39.20;;;;;;5097059;28;1809;-69
2024/04/08 02:30:58;;;;;;;;;;;21.80;39.20;;;;;;5097391;28;1860;-69
2024/04/08 02:33:24;;;;;;;;;;;21.80;39.20;;;;;;5097693;28;1890;-69
2024/04/08 02:35:50;;;;;;;;;;;21.80;39.90;;;;;;5097554;28;1059;-69
2024/04/08 02:38:16;;;;;;;;;;;21.90;39.40;;;;;;5097542;28;1227;-69
2024/04/08 02:40:42;;;;;;;;;;;21.90;39.40;;;;;;5097613;28;1817;-69
2024/04/08 02:43:07;;;;;;;;;;;21.80;39.30;;;;;;5097443;28;1241;-69
2024/04/08 02:45:34;;;;;;;;;;;21.80;39.40;;;;;;5097762;28;1312;-69
2024/04/08 02:47:59;;;;;;;;;;;21.80;39.30;;;;;;5097654;28;1013;-70
2024/04/08 02:50:26;;;;;;;;;;;21.80;39.40;;;;;;5095810;28;1237;-70
2024/04/08 02:52:51;;;;;;;;;;;21.80;39.40;;;;;;5097069;28;1993;-69
2024/04/08 02:55:18;;;;;;;;;;;21.80;39.40;;;;;;5097581;28;1010;-69
2024/04/08 02:57:43;;;;;;;;;;;21.80;39.40;;;;;;5097530;28;1151;-69
2024/04/08 03:00:10;;;;;;;;;;;21.80;39.40;;;;;;5108421;22;2337;-69
2024/04/08 03:02:36;;;;;;;;;;;21.80;39.40;;;;;;5093152;28;1652;-70
2024/04/08 03:05:02;;;;;;;;;;;21.80;39.40;;;;;;5096655;28;1112;-70
2024/04/08 03:07:28;;;;;;;;;;;21.80;39.40;;;;;;5096911;28;1066;-70
2024/04/08 03:09:54;;;;;;;;;;;21.80;39.50;;;;;;5096896;28;1039;-70
2024/04/08 03:12:20;;;;;;;;;;;21.80;39.40;;;;;;5097099;28;1007;-69
2024/04/08 03:14:46;;;;;;;;;;;21.80;39.50;;;;;;5096747;28;1988;-70
2024/04/08 03:17:11;;;;;;;;;;;21.80;39.50;;;;;;5097320;28;1089;-69
2024/04/08 03:19:38;;;;;;;;;;;21.80;39.40;;;;;;5097273;28;2090;-70
2024/04/08 03:22:03;;;;;;;;;;;21.80;39.40;;;;;;5096659;28;1026;-69
2024/04/08 03:24:30;;;;;;;;;;;21.80;39.40;;;;;;5096612;28;1027;-69
2024/04/08 03:26:55;;;;;;;;;;;21.80;39.50;;;;;;5096583;28;1081;-70
2024/04/08 03:29:21;;;;;;;;;;;21.80;39.40;;;;;;5096529;28;1016;-69
2024/04/08 03:31:47;;;;;;;;;;;21.80;39.50;;;;;;5096472;28;1081;-69
2024/04/08 03:34:13;;;;;;;;;;;21.80;39.40;;;;;;5096043;28;1913;-69
2024/04/08 03:36:39;;;;;;;;;;;21.80;39.40;;;;;;5096379;28;1013;-69
2024/04/08 03:39:05;;;;;;;;;;;21.80;39.50;;;;;;5096041;28;1140;-69
2024/04/08 03:41:32;;;;;;;;;;;21.80;39.50;;;;;;5096030;28;1116;-69
2024/04/08 03:43:58;;;;;;;;;;;21.80;39.50;;;;;;5096229;28;1181;-69
2024/04/08 03:46:24;;;;;;;;;;;21.80;39.50;;;;;;5095962;28;1296;-69
2024/04/08 03:48:51;;;;;;;;;;;21.80;39.50;;;;;;5095538;28;1019;-69
2024/04/08 03:51:18;;;;;;;;;;;21.80;39.50;;;;;;5058713;28;1353;-69
2024/04/08 03:53:44;;;;;;;;;;;21.80;39.60;;;;;;5055648;28;2000;-70
2024/04/08 03:56:09;;;;;;;;;;;21.70;39.40;;;;;;5055468;28;1292;-69
2024/04/08 03:58:36;;;;;;;;;;;21.80;39.50;;;;;;5055719;28;1087;-69
2024/04/08 04:01:02;;;;;;;;;;;21.70;39.40;;;;;;5055281;28;1133;-69
2024/04/08 04:03:28;;;;;;;;;;;21.70;39.40;;;;;;5055659;28;1064;-69
2024/04/08 04:05:53;;;;;;;;;;;21.70;39.50;;;;;;5055573;28;1021;-70
2024/04/08 04:08:20;;;;;;;;;;;21.70;39.50;;;;;;5055584;28;1019;-69
2024/04/08 04:10:46;;;;;;;;;;;21.70;39.50;;;;;;5055511;28;1002;-70
2024/04/08 04:13:12;;;;;;;;;;;21.70;39.50;;;;;;5055384;28;1914;-69
2024/04/08 04:15:38;;;;;;;;;;;21.70;39.50;;;;;;5055096;28;1367;-69
2024/04/08 04:18:04;;;;;;;;;;;21.70;39.50;;;;;;5055384;28;1051;-69
2024/04/08 04:20:30;;;;;;;;;;;21.70;39.50;;;;;;5055333;28;1084;-69
2024/04/08 04:22:56;;;;;;;;;;;21.70;39.50;;;;;;5055305;28;1077;-69
2024/04/08 04:25:23;;;;;;;;;;;21.70;39.50;;;;;;5055266;28;1024;-69
2024/04/08 04:27:48;;;;;;;;;;;21.70;39.50;;;;;;5055236;28;1063;-70
2024/04/08 04:30:15;;;;;;;;;;;21.70;39.50;;;;;;5055189;28;1040;-69
2024/04/08 04:32:40;;;;;;;;;;;21.70;39.50;;;;;;5055152;28;1071;-70
2024/04/08 04:35:07;;;;;;;;;;;21.70;39.50;;;;;;5055072;28;1989;-69
2024/04/08 04:37:33;;;;;;;;;;;21.70;39.50;;;;;;5055038;28;1010;-69
2024/04/08 04:39:59;;;;;;;;;;;21.70;39.50;;;;;;5055031;28;992;-70
2024/04/08 04:42:24;;;;;;;;;;;21.70;39.50;;;;;;5054934;28;1193;-69
2024/04/08 04:44:51;;;;;;;;;;;21.70;39.40;;;;;;5055005;28;1093;-70
2024/04/08 04:47:17;;;;;;;;;;;21.70;39.40;;;;;;5054940;28;1029;-70
2024/04/08 04:49:43;;;;;;;;;;;21.70;39.40;;;;;;5061397;28;1320;-69
2024/04/08 04:52:09;;;;;;;;;;;21.70;39.40;;;;;;5073572;28;1167;-71
2024/04/08 04:54:35;;;;;;;;;;;21.70;39.40;;;;;;5074677;28;1906;-70
2024/04/08 04:57:01;;;;;;;;;;;21.70;39.40;;;;;;5074576;28;1148;-70
2024/04/08 04:59:27;;;;;;;;;;;21.70;39.40;;;;;;5074756;28;1833;-70
2024/04/08 05:01:53;;;;;;;;;;;21.70;39.50;;;;;;5074409;28;1116;-70
2024/04/08 05:04:19;;;;;;;;;;;21.70;39.60;;;;;;5074548;28;1078;-70
2024/04/08 05:06:44;;;;;;;;;;;21.70;40.00;;;;;;5074545;28;1080;-70
2024/04/08 05:09:11;;;;;;;;;;;21.70;40.40;;;;;;5074253;28;1167;-69
2024/04/08 05:11:36;;;;;;;;;;;21.70;40.70;;;;;;5074660;28;1005;-69
2024/04/08 05:14:03;;;;;;;;;;;21.70;40.90;;;;;;5072086;28;1984;-70
2024/04/08 05:16:29;;;;;;;;;;;21.70;40.80;;;;;;5056472;28;1205;-70
2024/04/08 05:18:55;;;;;;;;;;;21.70;40.70;;;;;;5071851;28;1277;-70
2024/04/08 05:21:21;;;;;;;;;;;21.70;40.80;;;;;;5074358;28;1285;-70
2024/04/08 05:23:48;;;;;;;;;;;21.50;40.00;;;;;;5074550;28;1060;-70
2024/04/08 05:26:13;;;;;;;;;;;21.40;40.30;;;;;;5074568;28;1078;-70
2024/04/08 05:28:39;;;;;;;;;;;21.40;40.40;;;;;;5074208;28;2017;-69
2024/04/08 05:31:05;;;;;;;;;;;21.50;40.40;;;;;;5074358;28;1944;-70
2024/04/08 05:33:32;;;;;;;;;;;21.50;40.60;;;;;;5074910;28;2039;-69
2024/04/08 05:35:57;;;;;;;;;;;21.60;40.80;;;;;;5074404;28;1119;-70
2024/04/08 05:38:24;;;;;;;;;;;21.60;40.80;;;;;;5074432;28;1049;-69
2024/04/08 05:40:50;;;;;;;;;;;21.70;40.90;;;;;;5074128;28;1095;-70
2024/04/08 05:43:16;;;;;;;;;;;21.70;40.90;;;;;;5073971;28;1324;-70
2024/04/08 05:45:42;;;;;;;;;;;21.70;41.00;;;;;;5074260;28;1059;-70
2024/04/08 05:48:08;;;;;;;;;;;21.70;41.10;;;;;;5074312;28;1086;-70
2024/04/08 05:50:33;;;;;;;;;;;21.70;41.10;;;;;;5073966;28;1175;-70
2024/04/08 05:53:00;;;;;;;;;;;21.70;41.10;;;;;;5074272;28;1000;-70
2024/04/08 05:55:27;;;;;;;;;;;21.70;41.30;;;;;;5074169;28;1902;-70
2024/04/08 05:57:54;;;;;;;;;;;21.70;41.40;;;;;;5074008;28;1267;-69
2024/04/08 06:00:19;;;;;;;;;;;21.70;41.50;;;;;;5074441;28;2056;-69
2024/04/08 06:02:49;;;;;;;;;;;21.70;41.40;;;;;;5074138;28;1075;-69
2024/04/08 06:05:15;;;;;;;;;;;21.70;41.40;;;;;;5073988;28;1095;-70
2024/04/08 06:07:41;;;;;;;;;;;21.70;41.40;;;;;;5074309;28;1082;-70
2024/04/08 06:10:08;;;;;;;;;;;21.70;41.30;;;;;;5069507;28;1476;-69
2024/04/08 06:12:34;;;;;;;;;;;21.70;41.20;;;;;;5073215;28;1433;-70
2024/04/08 06:15:00;;;;;;;;;;;21.70;41.10;;;;;;5074177;28;1913;-70
2024/04/08 06:17:27;;;;;;;;;;;21.70;41.10;;;;;;5075343;28;1254;-71
2024/04/08 06:19:52;;;;;;;;;;;21.70;41.00;;;;;;5075473;28;1127;-71
2024/04/08 06:22:19;;;;;;;;;;;21.70;41.00;;;;;;5076257;28;1080;-71
2024/04/08 06:24:44;;;;;;;;;;;21.70;41.00;;;;;;5067916;28;1183;-70
2024/04/08 06:27:10;;;;;;;;;;;21.70;40.90;;;;;;5056831;28;1336;-70
2024/04/08 06:29:36;;;;;;;;;;;21.70;41.00;;;;;;5056602;28;1357;-70
2024/04/08 06:32:03;;;;;;;;;;;21.70;40.90;;;;;;5057278;28;1160;-71
2024/04/08 06:34:28;;;;;;;;;;;21.70;40.90;;;;;;5071685;28;1897;-70
2024/04/08 06:36:55;;;;;;;;;;;21.70;40.90;;;;;;5076152;28;1335;-70
2024/04/08 06:39:20;;;;;;;;;;;21.70;40.90;;;;;;5077737;28;1117;-69
2024/04/08 06:41:47;;;;;;;;;;;21.70;40.90;;;;;;5077396;28;1091;-71
2024/04/08 06:44:12;;;;;;;;;;;21.70;40.90;;;;;;5077667;28;1236;-71
2024/04/08 06:46:39;;;;;;;;;;;21.70;40.80;;;;;;5078205;28;1080;-70
2024/04/08 06:49:04;;;;;;;;;;;21.70;40.90;;;;;;5077772;28;1071;-70
2024/04/08 06:51:32;;;;;;;;;;;21.70;40.80;;;;;;5077912;28;1002;-70
2024/04/08 06:53:57;;;;;;;;;;;21.70;40.80;;;;;;5077404;28;1982;-70
2024/04/08 06:56:24;;;;;;;;;;;21.70;40.70;;;;;;5076793;28;1354;-70
2024/04/08 06:58:49;;;;;;;;;;;21.70;40.70;;;;;;5076823;28;1021;-71
2024/04/08 07:01:16;;;;;;;;;;;21.70;40.70;;;;;;5076568;28;1319;-71
2024/04/08 07:03:41;;;;;;;;;;;21.70;40.70;;;;;;5076966;28;1167;-71
2024/04/08 07:06:07;;;;;;;;;;;21.70;40.70;;;;;;5078894;28;1053;-69
2024/04/08 07:08:33;;;;;;;;;;;21.70;40.80;;;;;;5087741;28;1281;-69
2024/04/08 07:10:59;;;;;;;;;;;21.70;40.80;;;;;;5084905;28;1027;-70
2024/04/08 07:13:25;;;;;;;;;;;21.80;40.90;;;;;;5056796;28;1906;-70
2024/04/08 07:15:51;;;;;;;;;;;21.80;40.90;;;;;;5055606;28;1212;-70
2024/04/08 07:18:17;;;;;;;;;;;21.80;41.00;;;;;;5068198;28;1522;-70
2024/04/08 07:20:43;;;;;;;;;;;21.80;41.00;;;;;;5075741;28;1060;-71
2024/04/08 07:23:09;;;;;;;;;;;21.80;41.10;;;;;;5073971;28;1945;-70
2024/04/08 07:25:35;;;;;;;;;;;21.80;41.00;;;;;;5075211;28;1175;-70
2024/04/08 07:28:00;;;;;;;;;;;21.80;41.00;;;;;;5074973;28;1131;-71
2024/04/08 07:30:27;;;;;;;;;;;21.80;41.10;;;;;;5075489;28;1096;-71
2024/04/08 07:32:52;;;;;;;;;;;21.80;41.20;;;;;;5075447;28;1085;-71
2024/04/08 07:35:20;;;;;;;;;;;21.90;41.20;;;;;;5074333;28;1913;-71
2024/04/08 07:37:46;;;;;;;;;;;21.90;41.10;;;;;;5076046;28;1070;-71
2024/04/08 07:40:13;;;;;;;;;;;21.90;41.00;;;;;;5075789;28;1096;-70
2024/04/08 07:42:39;;;;;;;;;;;21.90;41.00;;;;;;5075651;28;1177;-71
2024/04/08 07:45:05;;;;;;;;;;;21.90;41.00;;;;;;5076037;28;999;-71
2024/04/08 07:47:31;;;;;;;;;;;22.00;41.10;;;;;;5075909;28;1071;-71
2024/04/08 07:49:58;;;;;;;;;;;22.00;41.20;;;;;;5075575;28;1205;-70
2024/04/08 07:52:23;;;;;;;;;;;22.00;41.20;;;;;;5075747;28;1170;-71
2024/04/08 07:54:49;;;;;;;;;;;22.00;41.20;;;;;;5075372;28;1910;-69
2024/04/08 07:57:15;;;;;;;;;;;22.00;41.20;;;;;;5075704;28;1078;-71
2024/04/08 07:59:41;;;;;;;;;;;22.00;41.10;;;;;;5075355;28;1164;-69
2024/04/08 08:02:07;;;;;;;;;;;22.10;41.20;;;;;;5075344;28;1186;-70
2024/04/08 08:04:33;;;;;;;;;;;22.10;41.20;;;;;;5075259;28;1208;-70
2024/04/08 08:06:59;;;;;;;;;;;22.10;41.20;;;;;;5075577;28;1022;-70
2024/04/08 08:09:25;;;;;;;;;;;22.10;41.20;;;;;;5075179;28;1112;-70
2024/04/08 08:11:52;;;;;;;;;;;22.10;41.10;;;;;;5073600;28;1290;-70
2024/04/08 08:14:18;;;;;;;;;;;22.20;41.20;;;;;;5073870;28;1986;-70
2024/04/08 08:16:45;;;;;;;;;;;22.20;41.20;;;;;;5075142;28;1090;-70
2024/04/08 08:19:10;;;;;;;;;;;22.20;41.10;;;;;;5075241;28;1348;-70
2024/04/08 08:21:37;;;;;;;;;;;22.20;41.10;;;;;;5075370;28;996;-70
2024/04/08 08:24:03;;;;;;;;;;;22.20;41.10;;;;;;5075482;28;1073;-70
2024/04/08 08:26:32;;;;;;;;;;;22.20;41.20;;;;;;5073611;28;1380;-70
2024/04/08 08:28:57;;;;;;;;;;;22.30;41.30;;;;;;5074728;28;1289;-70
2024/04/08 08:31:24;;;;;;;;;;;22.30;41.30;;;;;;5074593;28;1435;-71
2024/04/08 08:33:50;;;;;;;;;;;22.30;41.30;;;;;;5074776;28;1995;-70
2024/04/08 08:36:16;;;;;;;;;;;22.30;41.40;;;;;;5075061;28;1088;-71
2024/04/08 08:38:42;;;;;;;;;;;22.30;41.40;;;;;;5075063;28;1020;-70
2024/04/08 08:41:08;;;;;;;;;;;22.40;41.40;;;;;;5074689;28;1119;-71
2024/04/08 08:43:37;;;;;;;;;;;22.40;41.40;;;;;;5074905;28;1208;-70
2024/04/08 08:46:03;;;;;;;;;;;22.40;41.40;;;;;;5074676;28;2072;-71
2024/04/08 08:48:28;;;;;;;;;;;22.40;41.40;;;;;;5074917;28;1013;-71
2024/04/08 08:50:55;;;;;;;;;;;22.40;41.40;;;;;;5074922;28;1128;-71
2024/04/08 08:53:20;;;;;;;;;;;22.50;41.50;;;;;;5074826;28;1278;-70
2024/04/08 08:55:47;;;;;;;;;;;22.50;41.50;;;;;;5074483;28;1910;-71
2024/04/08 08:58:12;;;;;;;;;;;22.50;41.50;;;;;;5074775;28;1006;-70
2024/04/08 09:00:39;;;;;;;;;;;22.50;41.50;;;;;;5074313;28;1300;-70
2024/04/08 09:03:04;;;;;;;;;;;22.50;41.50;;;;;;5074508;28;1067;-71
2024/04/08 09:05:31;;;;;;;;;;;22.60;41.50;;;;;;5075233;28;1934;-71
2024/04/08 09:07:56;;;;;;;;;;;22.60;41.50;;;;;;5067362;28;1419;-71
2024/04/08 09:10:26;;;;;;;;;;;22.60;41.50;;;;;;5054727;28;1428;-71
2024/04/08 09:12:52;;;;;;;;;;;22.60;41.40;;;;;;5052500;28;1103;-70
2024/04/08 09:15:18;;;;;;;;;;;22.50;41.40;;;;;;5052382;28;1910;-70
2024/04/08 09:17:44;;;;;;;;;;;22.50;41.40;;;;;;5053486;28;1645;-70
2024/04/08 09:20:11;;;;;;;;;;;22.50;41.40;;;;;;5053401;28;1085;-70
2024/04/08 09:22:37;;;;;;;;;;;22.50;41.50;;;;;;5053642;28;1084;-70
2024/04/08 09:25:03;;;;;;;;;;;22.50;41.50;;;;;;5053618;28;1085;-70
2024/04/08 09:27:29;;;;;;;;;;;22.40;41.40;;;;;;5054225;28;1091;-71
2024/04/08 09:29:55;;;;;;;;;;;22.40;41.40;;;;;;5054179;28;1349;-70
2024/04/08 09:32:21;;;;;;;;;;;22.40;41.50;;;;;;5055514;28;1342;-70
2024/04/08 09:34:47;;;;;;;;;;;22.40;41.50;;;;;;5053625;28;1910;-70
2024/04/08 09:37:13;;;;;;;;;;;22.40;41.50;;;;;;5054184;28;1084;-70
2024/04/08 09:39:38;;;;;;;;;;;22.40;41.50;;;;;;5054444;28;1067;-71
2024/04/08 09:42:05;;;;;;;;;;;22.40;41.50;;;;;;5054014;28;1272;-71
2024/04/08 09:44:31;;;;;;;;;;;22.40;41.50;;;;;;5054336;28;1032;-69
2024/04/08 09:46:57;;;;;;;;;;;22.40;41.60;;;;;;5056884;28;1285;-70
2024/04/08 09:49:23;;;;;;;;;;;22.40;41.50;;;;;;5057843;28;1179;-70
2024/04/08 09:51:50;;;;;;;;;;;22.40;41.50;;;;;;5058280;28;998;-69
2024/04/08 09:54:15;;;;;;;;;;;22.40;41.60;;;;;;5058052;28;1919;-70
2024/04/08 09:56:42;;;;;;;;;;;22.40;41.60;;;;;;5058120;28;1067;-70
2024/04/08 09:59:08;;;;;;;;;;;22.40;41.60;;;;;;5058047;28;1077;-70
2024/04/08 10:01:34;;;;;;;;;;;22.40;41.60;;;;;;5058044;28;1395;-70
2024/04/08 10:04:00;;;;;;;;;;;22.40;41.90;;;;;;5057941;28;1036;-70
2024/04/08 10:06:26;;;;;;;;;;;22.50;42.50;;;;;;5057642;28;1360;-70
2024/04/08 10:08:52;;;;;;;;;;;22.50;42.90;;;;;;5086919;28;1561;-71
2024/04/08 10:11:18;;;;;;;;;;;22.60;43.10;;;;;;5098179;28;1064;-70
2024/04/08 10:13:44;;;;;;;;;;;22.70;43.20;;;;;;5097775;28;1267;-70
2024/04/08 10:16:10;;;;;;;;;;;22.70;43.70;;;;;;5097992;28;1910;-71
2024/04/08 10:18:37;;;;;;;;;;;22.70;44.50;;;;;;5098044;28;1068;-71
2024/04/08 10:21:02;;;;;;;;;;;22.70;44.70;;;;;;5098039;28;1080;-70
2024/04/08 10:23:29;;;;;;;;;;;22.70;44.50;;;;;;5097916;28;1184;-71
2024/04/08 10:25:55;;;;;;;;;;;22.70;44.40;;;;;;5097906;28;1045;-70
2024/04/08 10:28:25;;;;;;;;;;;22.70;44.30;;;;;;5097742;28;1005;-71
2024/04/08 10:30:50;;;;;;;;;;;22.70;44.40;;;;;;5097707;28;1010;-71
2024/04/08 10:33:17;;;;;;;;;;;22.70;44.30;;;;;;5097540;28;1046;-71
2024/04/08 10:35:42;;;;;;;;;;;22.80;43.80;;;;;;5097473;28;1913;-71
2024/04/08 10:38:09;;;;;;;;;;;22.80;43.30;;;;;;5097612;28;1009;-72
2024/04/08 10:40:34;;;;;;;;;;;22.70;42.70;;;;;;5097547;28;1023;-71
2024/04/08 10:43:01;;;;;;;;;;;22.80;41.70;;;;;;5097261;28;1292;-71
2024/04/08 10:45:26;;;;;;;;;;;22.70;41.30;;;;;;5097590;28;1080;-71
2024/04/08 10:47:53;;;;;;;;;;;22.70;40.90;;;;;;5097201;28;1131;-71
2024/04/08 10:50:18;;;;;;;;;;;22.80;39.50;;;;;;5097329;28;1178;-72
2024/04/08 10:52:45;;;;;;;;;;;22.80;39.50;;;;;;5097382;28;1300;-71
2024/04/08 10:55:10;;;;;;;;;;;22.70;39.00;;;;;;5096709;28;1977;-70
2024/04/08 10:57:36;;;;;;;;;;;22.70;38.60;;;;;;5096657;28;1364;-70
2024/04/08 11:00:03;;;;;;;;;;;22.70;38.10;;;;;;5097067;28;1095;-70
2024/04/08 11:02:29;;;;;;;;;;;22.70;38.60;;;;;;5096888;28;1491;-70
2024/04/08 11:04:55;;;;;;;;;;;22.60;39.00;;;;;;5096543;28;1301;-71
2024/04/08 11:07:21;;;;;;;;;;;22.60;39.10;;;;;;5096823;28;1049;-71
2024/04/08 11:09:47;;;;;;;;;;;22.60;39.20;;;;;;5096559;28;1300;-69
2024/04/08 11:12:14;;;;;;;;;;;22.60;39.30;;;;;;5096725;28;1023;-69
2024/04/08 11:14:39;;;;;;;;;;;22.60;39.30;;;;;;5096557;28;1910;-69
2024/04/08 11:17:05;;;;;;;;;;;22.60;39.40;;;;;;5096796;28;1029;-70
2024/04/08 11:19:34;;;;;;;;;;;22.60;39.50;;;;;;5096833;28;1079;-69
2024/04/08 11:22:01;;;;;;;;;;;22.60;39.50;;;;;;5096705;28;1043;-70
2024/04/08 11:24:26;;;;;;;;;;;22.60;39.40;;;;;;5096901;28;1593;-70
2024/04/08 11:26:53;;;;;;;;;;;22.60;39.40;;;;;;5097303;28;1068;-69
2024/04/08 11:29:18;;;;;;;;;;;22.60;39.50;;;;;;5096414;28;1111;-69
2024/04/08 11:31:45;;;;;;;;;;;22.60;39.50;;;;;;5096776;28;1295;-69
2024/04/08 11:34:10;;;;;;;;;;;22.60;39.60;;;;;;5096605;28;1988;-69
2024/04/08 11:36:37;;;;;;;;;;;22.60;39.60;;;;;;5096494;28;1545;-69
2024/04/08 11:39:03;;;;;;;;;;;22.60;39.60;;;;;;5096838;28;1178;-69
2024/04/08 11:41:29;;;;;;;;;;;22.60;39.60;;;;;;5097357;28;1299;-69
2024/04/08 11:43:55;;;;;;;;;;;22.60;39.60;;;;;;5096985;28;1175;-70
2024/04/08 11:46:24;;;;;;;;;;;22.60;39.60;;;;;;5096866;28;1047;-70
2024/04/08 11:48:49;;;;;;;;;;;22.60;39.60;;;;;;5098416;28;1449;-70
2024/04/08 11:51:16;;;;;;;;;;;22.60;39.50;;;;;;5097422;28;997;-70
2024/04/08 11:53:41;;;;;;;;;;;22.60;39.60;;;;;;5096139;28;1020;-70
2024/04/08 11:56:08;;;;;;;;;;;22.60;39.60;;;;;;5095982;28;1910;-70
2024/04/08 11:58:33;;;;;;;;;;;22.60;39.60;;;;;;5095704;28;1115;-70
2024/04/08 12:01:02;;;;;;;;;;;22.60;39.60;;;;;;5095489;28;1132;-70
2024/04/08 12:03:27;;;;;;;;;;;22.60;39.70;;;;;;5096528;28;1187;-70
2024/04/08 12:05:54;;;;;;;;;;;22.60;39.70;;;;;;5095845;28;1001;-70
2024/04/08 12:08:20;;;;;;;;;;;22.60;39.80;;;;;;5095360;28;1035;-69
2024/04/08 12:10:46;;;;;;;;;;;22.60;39.60;;;;;;5095873;28;1006;-69
2024/04/08 12:13:12;;;;;;;;;;;22.60;39.60;;;;;;5095869;28;1102;-69
2024/04/08 12:15:37;;;;;;;;;;;22.60;39.70;;;;;;5095653;28;1975;-69
2024/04/08 12:18:04;;;;;;;;;;;22.60;39.70;;;;;;5095738;28;1025;-69
2024/04/08 12:20:29;;;;;;;;;;;22.60;39.80;;;;;;5095719;28;1107;-69
2024/04/08 12:22:56;;;;;;;;;;;22.60;39.80;;;;;;5095397;28;1095;-69
2024/04/08 12:25:21;;;;;;;;;;;22.60;39.80;;;;;;5095589;28;1043;-69
2024/04/08 12:27:48;;;;;;;;;;;22.60;39.80;;;;;;5095218;28;1163;-69
2024/04/08 12:30:13;;;;;;;;;;;22.60;39.80;;;;;;5095135;28;1276;-69
2024/04/08 12:32:39;;;;;;;;;;;22.60;39.80;;;;;;5095409;28;991;-69
2024/04/08 12:35:05;;;;;;;;;;;22.60;39.80;;;;;;5095295;28;1997;-70
2024/04/08 12:37:31;;;;;;;;;;;22.60;39.50;;;;;;5095468;28;1080;-69
2024/04/08 12:39:57;;;;;;;;;;;22.60;39.50;;;;;;5094985;28;1186;-69
2024/04/08 12:42:23;;;;;;;;;;;22.70;39.60;;;;;;5094763;28;1317;-69
2024/04/08 12:44:49;;;;;;;;;;;22.60;39.50;;;;;;5094860;28;1296;-69
2024/04/08 12:47:15;;;;;;;;;;;22.70;39.60;;;;;;5095159;28;1079;-69
2024/04/08 12:49:41;;;;;;;;;;;22.60;39.50;;;;;;5095130;28;1017;-69
2024/04/08 12:52:07;;;;;;;;;;;22.70;39.70;;;;;;5095262;28;1594;-69
2024/04/08 12:54:33;;;;;;;;;;;22.60;39.50;;;;;;5095033;28;1987;-69
2024/04/08 12:56:59;;;;;;;;;;;22.70;39.60;;;;;;5094708;28;1151;-69
2024/04/08 12:59:25;;;;;;;;;;;22.70;39.60;;;;;;5095027;28;1096;-69
2024/04/08 13:01:51;;;;;;;;;;;22.70;39.70;;;;;;5094753;28;1329;-69
2024/04/08 13:04:16;;;;;;;;;;;22.70;39.70;;;;;;5094537;28;1143;-67
2024/04/08 13:06:43;;;;;;;;;;;22.70;39.70;;;;;;5072673;28;1740;-70
2024/04/08 13:09:09;;;;;;;;;;;22.70;39.60;;;;;;5074714;28;1072;-71
2024/04/08 13:11:36;;;;;;;;;;;22.70;39.60;;;;;;5074772;28;1025;-71
2024/04/08 13:14:04;;;;;;;;;;;22.70;39.70;;;;;;5074988;28;1048;-71
2024/04/08 13:16:30;;;;;;;;;;;22.70;39.70;;;;;;5074923;28;1993;-71
2024/04/08 13:18:56;;;;;;;;;;;22.70;39.90;;;;;;5074569;28;1289;-72
2024/04/08 13:21:22;;;;;;;;;;;22.70;40.00;;;;;;5077091;28;1063;-72
2024/04/08 13:23:48;;;;;;;;;;;22.70;40.00;;;;;;5079118;28;1036;-72
2024/04/08 13:26:14;;;;;;;;;;;22.70;40.10;;;;;;5078893;28;997;-71
2024/04/08 13:28:40;;;;;;;;;;;22.70;40.10;;;;;;5079022;28;1003;-71
2024/04/08 13:31:06;;;;;;;;;;;22.70;40.00;;;;;;5079016;28;1012;-71
2024/04/08 13:33:32;;;;;;;;;;;22.70;40.00;;;;;;5078661;28;1131;-71
2024/04/08 13:35:59;;;;;;;;;;;22.70;40.00;;;;;;5078704;28;1917;-72
2024/04/08 13:38:24;;;;;;;;;;;22.70;40.00;;;;;;5079079;28;1072;-71
2024/04/08 13:40:51;;;;;;;;;;;22.70;40.00;;;;;;5079157;28;1016;-71
2024/04/08 13:43:16;;;;;;;;;;;22.70;39.90;;;;;;5079102;28;1185;-71
2024/04/08 13:45:43;;;;;;;;;;;22.70;39.90;;;;;;5078522;28;1240;-71
2024/04/08 13:48:09;;;;;;;;;;;22.70;39.90;;;;;;5078854;28;1091;-71
2024/04/08 13:50:35;;;;;;;;;;;22.70;39.90;;;;;;5078744;28;1002;-72
2024/04/08 13:53:01;;;;;;;;;;;22.70;39.90;;;;;;5078429;28;997;-70
2024/04/08 13:55:27;;;;;;;;;;;22.70;39.90;;;;;;5078155;28;1882;-71
2024/04/08 13:57:54;;;;;;;;;;;22.70;39.70;;;;;;5078020;28;1303;-70
2024/04/08 14:00:21;;;;;;;;;;;22.70;39.50;;;;;;5078030;28;1414;-69
2024/04/08 14:02:47;;;;;;;;;;;22.70;39.40;;;;;;5078613;28;1034;-70
2024/04/08 14:05:13;;;;;;;;;;;22.70;39.10;;;;;;5078173;28;1246;-69
2024/04/08 14:07:39;;;;;;;;;;;22.70;39.00;;;;;;5074917;28;1427;-70
2024/04/08 14:10:05;;;;;;;;;;;22.70;38.90;;;;;;5078282;28;1030;-69
2024/04/08 14:12:31;;;;;;;;;;;22.70;38.90;;;;;;5077803;28;1350;-70
2024/04/08 14:14:58;;;;;;;;;;;22.70;39.00;;;;;;5078142;28;1910;-70
2024/04/08 14:17:23;;;;;;;;;;;22.80;39.00;;;;;;5078055;28;1080;-70
2024/04/08 14:19:49;;;;;;;;;;;22.80;38.90;;;;;;5077093;28;1448;-70
2024/04/08 14:22:15;;;;;;;;;;;22.90;39.00;;;;;;5075765;28;1992;-70
2024/04/08 14:24:41;;;;;;;;;;;22.90;39.10;;;;;;5076977;28;1444;-70